Time;durP1;ratioP1;P1;durP2;ratioP2;P2;SDS_P1;SDS_P2;PMS_P1;PMS_P2;Temp;Humidity;BMP_temperature;BMP_pressure;BME280_temperature;BME280_humidity;BME280_pressure;Samples;Min_cycle;Max_cycle;Signal;HPM_P1;HPM_P2
2021/08/22 00:00:28;;;;;;;7.40;3.50;;;21.10;81.50;;;;;;5042563;28;20044;-67
2021/08/22 00:02:53;;;;;;;6.88;3.33;;;21.10;81.70;;;;;;5043434;28;20036;-66
2021/08/22 00:05:19;;;;;;;5.75;3.00;;;21.10;81.70;;;;;;5045991;28;20723;-66
2021/08/22 00:07:44;;;;;;;6.95;3.20;;;21.10;81.60;;;;;;5046272;28;20098;-67
2021/08/22 00:10:10;;;;;;;7.07;3.63;;;21.10;81.60;;;;;;5045906;28;20055;-67
2021/08/22 00:12:36;;;;;;;6.72;3.25;;;21.10;81.60;;;;;;5044656;28;20102;-66
2021/08/22 00:15:02;;;;;;;7.90;3.58;;;21.10;81.50;;;;;;5045067;28;20037;-66
2021/08/22 00:17:28;;;;;;;7.18;3.40;;;21.00;81.70;;;;;;5044162;28;20482;-68
2021/08/22 00:19:53;;;;;;;6.70;3.45;;;21.10;81.80;;;;;;5032160;28;20179;-66
2021/08/22 00:22:19;;;;;;;6.32;3.40;;;21.10;81.80;;;;;;5039308;28;20498;-67
2021/08/22 00:24:44;;;;;;;7.50;3.20;;;21.00;81.80;;;;;;5039903;28;20075;-67
2021/08/22 00:27:10;;;;;;;9.40;3.47;;;21.00;81.90;;;;;;5033570;28;20422;-66
2021/08/22 00:29:36;;;;;;;5.38;2.90;;;21.00;81.80;;;;;;5044077;28;20044;-68
2021/08/22 00:32:02;;;;;;;7.25;3.80;;;21.00;81.80;;;;;;5045328;28;20029;-68
2021/08/22 00:34:27;;;;;;;7.63;3.38;;;21.00;82.00;;;;;;5044376;28;20028;-68
2021/08/22 00:36:54;;;;;;;5.60;3.28;;;21.00;82.10;;;;;;5045842;28;20535;-67
2021/08/22 00:39:20;;;;;;;6.30;3.63;;;21.00;82.10;;;;;;5045881;28;20029;-67
2021/08/22 00:41:46;;;;;;;6.15;3.10;;;21.00;81.90;;;;;;5043718;28;20662;-67
2021/08/22 00:44:11;;;;;;;6.70;3.33;;;21.00;82.00;;;;;;5044643;28;20116;-67
2021/08/22 00:46:37;;;;;;;6.95;3.22;;;21.00;82.60;;;;;;5045388;28;20059;-68
2021/08/22 00:49:05;;;;;;;5.38;3.10;;;21.00;82.00;;;;;;5043667;28;20031;-68
2021/08/22 00:51:30;;;;;;;6.75;3.65;;;21.00;82.00;;;;;;5045366;28;20431;-68
2021/08/22 00:53:56;;;;;;;6.18;3.13;;;20.90;82.00;;;;;;5045564;28;20105;-68
2021/08/22 00:56:21;;;;;;;5.85;3.42;;;20.90;82.10;;;;;;5045074;28;20498;-67
2021/08/22 00:58:47;;;;;;;6.00;3.20;;;20.90;82.10;;;;;;5044219;28;20029;-68
2021/08/22 01:01:24;;;;;;;6.70;3.30;;;21.00;82.10;;;;;;5044894;28;20226;-67
2021/08/22 01:03:58;;;;;;;7.32;3.33;;;20.90;82.30;;;;;;5045199;28;20029;-67
2021/08/22 01:06:32;;;;;;;7.30;3.50;;;20.90;82.20;;;;;;5045478;28;20056;-66
2021/08/22 01:09:04;;;;;;;6.90;3.50;;;20.90;82.30;;;;;;5045398;28;20072;-67
2021/08/22 01:11:35;;;;;;;6.57;3.63;;;20.90;82.20;;;;;;5044908;28;20029;-67
2021/08/22 01:14:09;;;;;;;5.53;3.42;;;20.90;82.30;;;;;;5045327;28;20513;-67
2021/08/22 01:16:39;;;;;;;6.38;3.40;;;20.90;82.40;;;;;;5043583;28;20036;-68
2021/08/22 01:19:38;;;;;;;6.93;3.70;;;20.90;82.50;;;;;;5045093;28;20032;-67
2021/08/22 01:22:07;;;;;;;7.75;3.42;;;20.90;82.50;;;;;;5024708;28;20080;-67
2021/08/22 01:24:37;;;;;;;6.63;3.42;;;20.90;82.60;;;;;;5039175;28;20025;-68
2021/08/22 01:27:04;;;;;;;7.10;3.88;;;20.90;82.60;;;;;;5025462;28;20029;-67
2021/08/22 01:29:34;;;;;;;6.55;3.83;;;20.90;82.60;;;;;;5025192;28;20025;-68
2021/08/22 01:32:02;;;;;;;6.43;3.72;;;20.90;82.80;;;;;;5024737;28;20061;-68
2021/08/22 01:34:29;;;;;;;6.15;3.85;;;20.90;82.70;;;;;;5025274;28;20030;-68
2021/08/22 01:36:57;;;;;;;6.03;3.80;;;20.90;82.70;;;;;;5024093;28;20049;-68
2021/08/22 01:39:23;;;;;;;8.52;4.95;;;20.80;83.00;;;;;;5024863;28;20071;-67
2021/08/22 01:41:49;;;;;;;6.78;4.03;;;20.90;82.70;;;;;;5024621;28;20025;-68
2021/08/22 01:44:16;;;;;;;6.40;3.90;;;20.90;82.80;;;;;;5025023;28;20634;-68
2021/08/22 01:46:43;;;;;;;6.93;4.03;;;20.80;82.60;;;;;;5023604;28;20065;-67
2021/08/22 01:49:10;;;;;;;6.25;3.90;;;20.90;82.80;;;;;;5023760;28;20041;-68
2021/08/22 01:51:37;;;;;;;7.07;3.83;;;20.80;82.90;;;;;;5024466;28;20026;-67
2021/08/22 01:54:07;;;;;;;6.90;4.05;;;20.80;83.00;;;;;;5023470;28;20120;-67
2021/08/22 01:56:32;;;;;;;6.93;3.70;;;20.80;83.00;;;;;;5028220;28;20063;-66
2021/08/22 01:58:58;;;;;;;6.72;3.95;;;20.80;83.10;;;;;;5043074;28;20071;-68
2021/08/22 02:01:24;;;;;;;5.43;3.00;;;20.80;83.50;;;;;;5044532;28;20036;-68
2021/08/22 02:04:20;;;;;;;5.68;3.35;;;20.80;83.10;;;;;;5047011;28;20086;-67
2021/08/22 02:07:07;;;;;;;6.10;3.92;;;20.80;83.20;;;;;;5047324;28;20044;-67
2021/08/22 02:09:43;;;;;;;6.63;3.80;;;20.80;83.40;;;;;;5047322;28;20025;-67
2021/08/22 02:12:14;;;;;;;6.13;3.38;;;20.80;83.10;;;;;;5046774;28;20028;-66
2021/08/22 02:14:44;;;;;;;6.78;3.40;;;20.80;83.10;;;;;;5047318;28;20470;-67
2021/08/22 02:17:11;;;;;;;6.55;3.30;;;20.80;83.20;;;;;;5048312;28;20041;-67
2021/08/22 02:19:39;;;;;;;6.53;3.80;;;20.80;83.30;;;;;;5047003;28;20116;-66
2021/08/22 02:22:06;;;;;;;6.18;3.53;;;20.70;83.30;;;;;;5046553;28;20032;-66
2021/08/22 02:24:31;;;;;;;6.80;3.60;;;20.70;83.30;;;;;;5048545;28;20036;-67
2021/08/22 02:26:57;;;;;;;7.95;3.65;;;20.70;83.30;;;;;;5048241;28;20021;-68
2021/08/22 02:29:23;;;;;;;5.55;3.25;;;20.70;83.30;;;;;;5046969;28;20032;-66
2021/08/22 02:31:48;;;;;;;5.47;3.30;;;20.70;83.50;;;;;;5047691;28;20449;-66
2021/08/22 02:34:14;;;;;;;6.22;3.70;;;20.70;83.40;;;;;;5043273;28;20048;-67
2021/08/22 02:36:39;;;;;;;5.72;3.30;;;20.70;84.20;;;;;;5043168;28;20067;-66
2021/08/22 02:39:05;;;;;;;5.45;3.30;;;20.70;83.80;;;;;;5047808;28;20033;-67
2021/08/22 02:41:30;;;;;;;7.05;3.53;;;20.70;83.80;;;;;;5047634;28;20040;-66
2021/08/22 02:43:56;;;;;;;5.88;3.20;;;20.70;84.00;;;;;;5047968;28;20434;-66
2021/08/22 02:46:22;;;;;;;5.97;3.33;;;20.70;84.10;;;;;;5046654;28;20033;-68
2021/08/22 02:48:47;;;;;;;6.65;3.70;;;20.70;84.10;;;;;;5047766;28;20116;-67
2021/08/22 02:51:13;;;;;;;6.05;3.47;;;20.70;84.10;;;;;;5047827;28;20453;-67
2021/08/22 02:53:38;;;;;;;7.18;3.58;;;20.70;84.20;;;;;;5046332;28;20052;-67
2021/08/22 02:56:04;;;;;;;6.25;3.47;;;20.70;84.20;;;;;;5047728;28;20803;-67
2021/08/22 02:58:29;;;;;;;5.78;3.55;;;20.70;84.20;;;;;;5047652;28;20056;-65
2021/08/22 03:00:55;;;;;;;6.45;3.50;;;20.70;84.30;;;;;;5046111;28;20048;-67
2021/08/22 03:03:20;;;;;;;6.13;3.67;;;20.70;84.40;;;;;;5047569;28;20471;-67
2021/08/22 03:05:46;;;;;;;5.47;2.92;;;20.70;84.30;;;;;;5047792;28;20029;-66
2021/08/22 03:08:11;;;;;;;5.70;3.22;;;20.70;84.40;;;;;;5047628;28;20029;-67
2021/08/22 03:10:37;;;;;;;5.60;3.58;;;20.70;84.40;;;;;;5047131;28;20117;-67
2021/08/22 03:13:03;;;;;;;5.60;3.17;;;20.60;84.40;;;;;;5047033;28;20064;-67
2021/08/22 03:15:28;;;;;;;5.72;3.35;;;20.60;84.40;;;;;;5045956;28;20056;-66
2021/08/22 03:17:54;;;;;;;5.03;3.00;;;20.70;84.40;;;;;;5047348;28;20037;-67
2021/08/22 03:20:20;;;;;;;5.50;3.13;;;20.60;84.50;;;;;;5046851;28;20025;-66
2021/08/22 03:22:46;;;;;;;5.10;2.90;;;20.60;84.40;;;;;;5046175;28;20026;-68
2021/08/22 03:25:13;;;;;;;6.05;3.45;;;20.60;84.40;;;;;;5045717;28;20548;-67
2021/08/22 03:27:39;;;;;;;5.80;3.53;;;20.60;84.50;;;;;;5045946;28;20041;-67
2021/08/22 03:30:05;;;;;;;6.78;3.95;;;20.60;84.60;;;;;;5045432;28;20040;-67
2021/08/22 03:32:31;;;;;;;6.78;3.63;;;20.60;84.60;;;;;;5047103;28;20064;-68
2021/08/22 03:34:57;;;;;;;6.20;3.55;;;20.60;84.60;;;;;;5045668;28;20068;-68
2021/08/22 03:37:23;;;;;;;6.05;3.72;;;20.60;84.70;;;;;;5047066;28;20090;-66
2021/08/22 03:39:49;;;;;;;7.32;3.63;;;20.60;84.70;;;;;;5046973;28;20031;-67
2021/08/22 03:42:14;;;;;;;6.32;3.75;;;20.60;84.70;;;;;;5046563;28;20037;-66
2021/08/22 03:44:40;;;;;;;5.95;3.20;;;20.60;84.90;;;;;;5045440;28;20017;-67
2021/08/22 03:47:06;;;;;;;5.65;3.40;;;20.60;84.90;;;;;;5045619;28;20132;-67
2021/08/22 03:49:32;;;;;;;5.75;3.40;;;20.60;84.90;;;;;;5046763;28;20024;-67
2021/08/22 03:51:57;;;;;;;5.82;3.65;;;20.60;84.90;;;;;;5045032;28;20029;-67
2021/08/22 03:54:23;;;;;;;6.55;3.42;;;20.60;85.00;;;;;;5046388;28;20525;-67
2021/08/22 03:56:49;;;;;;;6.13;3.28;;;20.60;84.90;;;;;;5046672;28;20032;-67
2021/08/22 03:59:14;;;;;;;5.60;3.50;;;20.60;84.90;;;;;;5045052;28;20029;-67
2021/08/22 04:01:40;;;;;;;6.53;3.83;;;20.60;85.40;;;;;;5046455;28;20398;-67
2021/08/22 04:04:06;;;;;;;5.55;3.50;;;20.60;84.80;;;;;;5046526;28;20397;-68
2021/08/22 04:06:33;;;;;;;6.53;3.45;;;20.60;85.00;;;;;;5046541;28;20028;-67
2021/08/22 04:09:00;;;;;;;5.85;3.60;;;20.50;84.80;;;;;;5045010;28;20136;-66
2021/08/22 04:11:27;;;;;;;6.25;4.10;;;20.60;84.80;;;;;;5044870;28;20473;-67
2021/08/22 04:13:53;;;;;;;6.40;3.67;;;20.60;84.90;;;;;;5044808;28;20664;-67
2021/08/22 04:16:19;;;;;;;6.47;3.60;;;20.60;84.90;;;;;;5045193;28;20045;-67
2021/08/22 04:18:45;;;;;;;6.95;3.78;;;20.60;84.90;;;;;;5046135;28;20028;-68
2021/08/22 04:21:11;;;;;;;5.45;3.28;;;20.60;85.00;;;;;;5045815;28;20049;-67
2021/08/22 04:23:38;;;;;;;6.35;3.80;;;20.60;85.10;;;;;;5043935;28;20032;-67
2021/08/22 04:26:03;;;;;;;6.22;3.65;;;20.60;85.00;;;;;;5045790;28;20035;-67
2021/08/22 04:28:29;;;;;;;5.95;3.60;;;20.60;85.10;;;;;;5044824;28;20029;-67
2021/08/22 04:30:54;;;;;;;6.80;3.83;;;20.60;85.20;;;;;;5044440;28;20021;-67
2021/08/22 04:33:20;;;;;;;6.10;3.22;;;20.60;85.30;;;;;;5044397;28;20039;-67
2021/08/22 04:35:45;;;;;;;7.47;3.75;;;20.50;85.20;;;;;;5038911;28;20033;-66
2021/08/22 04:38:11;;;;;;;6.10;3.53;;;20.50;85.20;;;;;;5044087;28;20020;-66
2021/08/22 04:40:38;;;;;;;6.03;3.20;;;20.60;85.40;;;;;;5045539;28;20482;-66
2021/08/22 04:43:05;;;;;;;5.93;3.47;;;20.60;85.40;;;;;;5045546;28;20132;-66
2021/08/22 04:45:31;;;;;;;6.10;3.45;;;20.60;85.50;;;;;;5035983;28;20390;-66
2021/08/22 04:47:56;;;;;;;6.63;3.65;;;20.60;85.30;;;;;;5044106;28;20017;-67
2021/08/22 04:50:22;;;;;;;6.18;3.20;;;20.60;85.50;;;;;;5044195;28;20437;-66
2021/08/22 04:52:47;;;;;;;7.00;3.58;;;20.50;85.50;;;;;;5045550;28;20071;-67
2021/08/22 04:55:13;;;;;;;6.18;3.10;;;20.60;85.70;;;;;;5044135;28;20135;-67
2021/08/22 04:57:38;;;;;;;6.38;3.70;;;20.60;85.70;;;;;;5036097;28;20033;-67
2021/08/22 05:00:04;;;;;;;6.40;3.60;;;20.60;85.80;;;;;;5030507;28;20104;-66
2021/08/22 05:02:30;;;;;;;6.50;3.60;;;20.60;85.80;;;;;;5030925;28;20025;-67
2021/08/22 05:04:55;;;;;;;6.72;3.78;;;20.50;85.80;;;;;;5025641;28;20071;-67
2021/08/22 05:07:21;;;;;;;6.43;3.58;;;20.50;85.80;;;;;;5037767;28;20106;-67
2021/08/22 05:09:46;;;;;;;6.07;3.53;;;20.60;86.00;;;;;;5029121;28;20421;-66
2021/08/22 05:12:12;;;;;;;5.70;3.70;;;20.60;85.80;;;;;;5029671;28;20076;-66
2021/08/22 05:14:37;;;;;;;5.60;3.10;;;20.50;85.90;;;;;;5024095;28;20026;-67
2021/08/22 05:17:03;;;;;;;5.55;3.20;;;20.60;86.00;;;;;;5036024;28;20043;-67
2021/08/22 05:19:29;;;;;;;5.07;2.97;;;20.60;86.00;;;;;;5041317;28;20028;-66
2021/08/22 05:21:54;;;;;;;5.93;3.60;;;20.60;86.20;;;;;;5038688;28;20037;-67
2021/08/22 05:24:20;;;;;;;5.22;3.15;;;20.50;86.10;;;;;;5045136;28;20032;-67
2021/08/22 05:26:46;;;;;;;4.90;3.05;;;20.60;86.20;;;;;;5041257;28;20025;-67
2021/08/22 05:29:12;;;;;;;6.38;3.25;;;20.60;86.20;;;;;;5023992;28;20682;-66
2021/08/22 05:31:37;;;;;;;5.68;3.67;;;20.60;86.20;;;;;;5032947;28;20059;-67
2021/08/22 05:34:03;;;;;;;6.32;3.20;;;20.60;86.30;;;;;;5025273;28;20037;-67
2021/08/22 05:36:34;;;;;;;6.07;3.22;;;20.50;86.20;;;;;;5026413;28;20030;-67
2021/08/22 05:39:00;;;;;;;7.43;4.38;;;20.60;86.30;;;;;;5029130;28;20059;-67
2021/08/22 05:41:26;;;;;;;6.10;3.53;;;20.60;86.30;;;;;;5037269;28;20052;-67
2021/08/22 05:43:51;;;;;;;7.03;4.05;;;20.50;86.20;;;;;;5036167;28;20041;-66
2021/08/22 05:46:17;;;;;;;5.97;3.67;;;20.60;86.40;;;;;;5027779;28;20079;-68
2021/08/22 05:48:42;;;;;;;6.25;3.40;;;20.60;86.40;;;;;;5029452;28;20025;-66
2021/08/22 05:51:22;;;;;;;6.60;3.70;;;20.60;86.30;;;;;;5028783;28;20087;-67
2021/08/22 05:53:48;;;;;;;6.35;4.07;;;20.60;86.30;;;;;;5042842;28;20124;-68
2021/08/22 05:56:15;;;;;;;6.18;3.53;;;20.60;86.40;;;;;;5039192;28;20092;-68
2021/08/22 05:58:41;;;;;;;6.20;3.90;;;20.70;86.40;;;;;;5028923;28;20570;-67
2021/08/22 06:01:07;;;;;;;6.10;3.50;;;20.60;86.50;;;;;;5027157;28;20102;-67
2021/08/22 06:03:32;;;;;;;6.30;3.65;;;20.50;86.50;;;;;;5028722;28;20017;-66
2021/08/22 06:05:58;;;;;;;7.18;4.10;;;20.60;86.60;;;;;;5033127;28;20028;-67
2021/08/22 06:08:24;;;;;;;7.13;4.43;;;20.50;86.40;;;;;;5047300;28;20126;-67
2021/08/22 06:10:50;;;;;;;5.80;3.65;;;20.60;86.50;;;;;;5039114;28;20526;-67
2021/08/22 06:13:15;;;;;;;7.95;4.65;;;20.60;87.20;;;;;;5026246;28;20055;-66
2021/08/22 06:15:41;;;;;;;6.93;4.22;;;20.60;86.70;;;;;;5035135;28;20371;-68
2021/08/22 06:18:07;;;;;;;9.80;4.45;;;20.60;86.80;;;;;;5028184;28;20399;-68
2021/08/22 06:20:32;;;;;;;7.18;4.63;;;20.60;86.80;;;;;;5039103;28;20047;-66
2021/08/22 06:22:58;;;;;;;9.30;4.20;;;20.60;86.80;;;;;;5048528;28;20076;-67
2021/08/22 06:25:24;;;;;;;7.60;4.35;;;20.60;86.90;;;;;;5047538;28;20017;-67
2021/08/22 06:27:49;;;;;;;7.07;4.00;;;20.60;87.00;;;;;;5047238;28;20025;-67
2021/08/22 06:30:15;;;;;;;6.95;4.15;;;20.60;86.80;;;;;;5047434;28;20044;-66
2021/08/22 06:32:40;;;;;;;6.90;4.43;;;20.60;86.80;;;;;;5035194;28;20120;-68
2021/08/22 06:35:06;;;;;;;7.63;4.70;;;20.70;86.90;;;;;;5027035;28;20467;-67
2021/08/22 06:37:32;;;;;;;6.75;4.13;;;20.70;86.90;;;;;;5040262;28;20040;-67
2021/08/22 06:40:02;;;;;;;7.25;3.95;;;20.60;87.50;;;;;;5047124;28;20021;-67
2021/08/22 06:42:28;;;;;;;7.07;3.97;;;20.70;86.80;;;;;;5037491;28;20666;-66
2021/08/22 06:44:54;;;;;;;8.27;4.88;;;20.70;86.90;;;;;;5031621;28;20119;-67
2021/08/22 06:47:19;;;;;;;9.30;5.53;;;20.70;87.10;;;;;;5025950;28;20029;-65
2021/08/22 06:49:45;;;;;;;6.82;4.50;;;20.70;87.10;;;;;;5045831;28;20037;-67
2021/08/22 06:52:12;;;;;;;7.57;5.22;;;20.70;87.10;;;;;;5041528;28;20766;-67
2021/08/22 06:54:41;;;;;;;6.22;3.92;;;20.70;87.00;;;;;;5062092;28;20032;-67
2021/08/22 06:57:07;;;;;;;7.10;4.95;;;20.70;86.60;;;;;;5049476;28;20029;-67
2021/08/22 06:59:32;;;;;;;6.28;4.00;;;20.70;86.70;;;;;;5046444;28;20473;-68
2021/08/22 07:01:58;;;;;;;7.03;4.47;;;20.80;86.60;;;;;;5041230;28;20025;-68
2021/08/22 07:04:23;;;;;;;6.20;3.70;;;20.70;86.40;;;;;;5040304;28;20025;-68
2021/08/22 07:06:48;;;;;;;7.05;4.00;;;20.70;86.30;;;;;;5046930;28;20517;-67
2021/08/22 07:09:14;;;;;;;7.43;3.85;;;20.70;86.20;;;;;;5030598;28;20038;-66
2021/08/22 07:11:40;;;;;;;6.47;4.13;;;20.70;86.10;;;;;;5024762;28;20115;-68
2021/08/22 07:14:05;;;;;;;7.93;4.47;;;20.80;86.20;;;;;;5030670;28;20033;-67
2021/08/22 07:16:31;;;;;;;7.05;4.13;;;20.80;86.40;;;;;;5026619;28;20037;-68
2021/08/22 07:18:56;;;;;;;11.52;6.90;;;20.80;86.60;;;;;;5025673;28;20030;-68
2021/08/22 07:21:22;;;;;;;11.63;6.07;;;20.80;86.70;;;;;;5029105;28;20957;-63
2021/08/22 07:23:47;;;;;;;8.73;4.35;;;20.80;87.00;;;;;;5037039;28;20398;-66
2021/08/22 07:26:13;;;;;;;8.50;4.95;;;20.80;87.10;;;;;;5033202;28;20029;-64
2021/08/22 07:28:39;;;;;;;8.93;4.70;;;20.80;87.20;;;;;;5032762;28;20438;-65
2021/08/22 07:31:05;;;;;;;7.63;4.53;;;20.80;87.00;;;;;;5037249;28;20562;-66
2021/08/22 07:33:34;;;;;;;9.15;4.93;;;20.80;86.90;;;;;;5035375;28;20036;-66
2021/08/22 07:36:03;;;;;;;7.40;4.68;;;20.80;87.00;;;;;;5038212;28;20029;-66
2021/08/22 07:38:30;;;;;;;7.78;4.32;;;20.90;86.70;;;;;;5032871;28;20025;-67
2021/08/22 07:40:55;;;;;;;7.05;4.13;;;21.00;86.30;;;;;;5041651;28;20033;-67
2021/08/22 07:43:21;;;;;;;8.68;4.70;;;20.90;86.10;;;;;;5046212;28;20067;-67
2021/08/22 07:45:47;;;;;;;9.00;4.90;;;21.00;86.20;;;;;;5044725;28;20686;-67
2021/08/22 07:48:12;;;;;;;8.48;4.60;;;21.00;85.70;;;;;;5044309;28;20410;-67
2021/08/22 07:50:38;;;;;;;7.53;4.13;;;21.10;85.50;;;;;;5027047;28;20045;-68
2021/08/22 07:53:04;;;;;;;7.03;4.50;;;21.10;84.80;;;;;;5025679;28;20033;-68
2021/08/22 07:55:29;;;;;;;7.22;4.18;;;21.20;84.40;;;;;;5026916;28;20060;-67
2021/08/22 07:57:55;;;;;;;6.93;4.13;;;21.40;83.90;;;;;;5025350;28;20030;-68
2021/08/22 08:00:21;;;;;;;7.93;4.22;;;21.40;83.50;;;;;;5035136;28;20077;-67
2021/08/22 08:02:46;;;;;;;7.55;4.05;;;21.40;83.80;;;;;;5036299;28;20029;-67
2021/08/22 08:05:13;;;;;;;6.72;3.90;;;21.40;83.90;;;;;;5025971;28;20116;-68
2021/08/22 08:07:41;;;;;;;7.30;4.03;;;21.30;83.50;;;;;;5026131;28;20036;-71
2021/08/22 08:10:08;;;;;;;5.82;3.58;;;21.40;83.50;;;;;;5024003;28;20017;-68
2021/08/22 08:12:34;;;;;;;7.80;4.30;;;21.50;83.30;;;;;;5026126;28;20868;-68
2021/08/22 08:15:00;;;;;;;6.95;3.67;;;21.60;82.50;;;;;;5028119;28;20033;-67
2021/08/22 08:17:26;;;;;;;7.28;4.40;;;21.80;82.10;;;;;;5037827;28;20029;-67
2021/08/22 08:19:52;;;;;;;8.02;3.90;;;21.90;81.50;;;;;;5041763;28;20487;-67
2021/08/22 08:22:17;;;;;;;6.07;3.45;;;22.00;81.30;;;;;;5027252;28;20033;-67
2021/08/22 08:24:43;;;;;;;6.40;4.13;;;22.10;81.10;;;;;;5038526;28;20025;-72
2021/08/22 08:27:08;;;;;;;14.60;5.70;;;22.20;80.10;;;;;;5034257;28;20903;-67
2021/08/22 08:29:34;;;;;;;7.57;4.10;;;22.10;79.90;;;;;;5031246;28;20541;-67
2021/08/22 08:32:00;;;;;;;7.35;4.15;;;22.00;80.50;;;;;;5032977;28;20097;-67
2021/08/22 08:34:25;;;;;;;8.90;4.70;;;21.90;81.50;;;;;;5032689;28;20041;-68
2021/08/22 08:36:51;;;;;;;8.25;4.70;;;21.90;81.40;;;;;;5035352;28;20387;-69
2021/08/22 08:39:17;;;;;;;15.55;5.55;;;21.90;82.10;;;;;;5024971;28;20071;-67
2021/08/22 08:41:42;;;;;;;14.13;7.57;;;21.90;82.00;;;;;;5043199;28;20791;-67
2021/08/22 08:44:12;;;;;;;15.73;7.90;;;21.90;82.60;;;;;;5049206;28;20024;-67
2021/08/22 08:46:41;;;;;;;14.60;8.75;;;21.90;82.90;;;;;;5057782;28;20028;-67
2021/08/22 08:49:27;;;;;;;13.05;8.88;;;21.80;83.10;;;;;;5045316;28;20033;-68
2021/08/22 08:52:07;;;;;;;14.13;9.45;;;21.80;83.00;;;;;;5035744;28;20204;-73
2021/08/22 08:54:36;;;;;;;15.63;10.30;;;21.90;82.80;;;;;;5031897;28;20568;-72
2021/08/22 08:57:03;;;;;;;15.07;10.45;;;22.00;83.00;;;;;;5036918;28;20104;-73
2021/08/22 08:59:28;;;;;;;13.82;8.85;;;22.10;83.20;;;;;;5042455;28;20033;-72
2021/08/22 09:01:56;;;;;;;11.43;8.07;;;22.00;82.20;;;;;;5040723;28;20025;-74
2021/08/22 09:04:27;;;;;;;11.90;7.10;;;22.10;81.90;;;;;;5041158;28;20083;-71
2021/08/22 09:07:02;;;;;;;;;;;22.10;81.90;;;;;;5027127;28;20061;-73
2021/08/22 09:09:45;;;;;;;11.35;6.28;;;22.30;81.30;;;;;;5025480;28;19909;-70
2021/08/22 09:12:45;;;;;;;10.57;6.60;;;22.40;80.90;;;;;;5024854;28;20132;-74
2021/08/22 09:15:48;;;;;;;10.65;6.88;;;22.40;80.90;;;;;;5030229;28;20033;-70
2021/08/22 09:18:58;;;;;;;12.30;6.53;;;22.30;80.90;;;;;;5029791;28;20789;-69
2021/08/22 09:21:59;;;;;;;14.75;6.22;;;22.20;80.90;;;;;;5051381;28;20398;-68
2021/08/22 09:25:02;;;;;;;14.60;8.23;;;22.20;80.90;;;;;;5029609;28;20053;-68
2021/08/22 09:28:05;;;;;;;13.80;8.10;;;22.10;81.10;;;;;;5044147;28;20036;-69
2021/08/22 09:31:08;;;;;;;14.20;8.68;;;22.10;81.50;;;;;;5045259;28;20029;-68
2021/08/22 09:34:11;;;;;;;16.77;8.25;;;22.10;81.90;;;;;;5026352;28;20503;-68
2021/08/22 09:36:58;;;;;;;13.60;8.35;;;22.10;81.90;;;;;;5033057;28;20036;-69
2021/08/22 09:39:27;;;;;;;12.38;7.72;;;22.10;81.90;;;;;;5032953;28;20067;-67
2021/08/22 09:42:07;;;;;;;13.02;7.07;;;22.00;81.60;;;;;;5031432;28;20025;-70
2021/08/22 09:45:24;;;;;;;12.93;6.55;;;22.10;81.80;;;;;;5025552;28;20103;-68
2021/08/22 09:48:27;;;;;;;13.60;8.88;;;22.00;81.60;;;;;;5021263;28;20033;-68
2021/08/22 09:51:29;;;;;;;15.20;7.35;;;22.10;81.80;;;;;;5043907;28;20132;-68
2021/08/22 09:54:24;;;;;;;14.93;7.25;;;22.10;81.90;;;;;;5043013;28;20115;-68
2021/08/22 09:57:28;;;;;;;16.58;8.15;;;22.10;81.90;;;;;;5030616;28;20041;-68
2021/08/22 10:00:15;;;;;;;16.95;9.45;;;22.20;82.40;;;;;;5032360;28;20037;-67
2021/08/22 10:03:02;;;;;;;16.02;8.68;;;22.30;82.60;;;;;;5027678;28;20021;-68
2021/08/22 10:05:45;;;;;;;12.88;8.65;;;22.30;81.70;;;;;;5031089;28;20021;-68
2021/08/22 10:08:34;;;;;;;14.60;8.05;;;22.40;81.90;;;;;;5025238;28;20033;-68
2021/08/22 10:11:03;;;;;;;13.45;7.70;;;22.50;81.50;;;;;;5027823;28;20041;-68
2021/08/22 10:13:30;;;;;;;12.57;7.68;;;22.50;81.10;;;;;;5039145;28;20059;-67
2021/08/22 10:15:56;;;;;;;15.38;9.93;;;22.50;81.60;;;;;;5043363;28;20029;-67
2021/08/22 10:18:23;;;;;;;15.73;10.10;;;22.50;81.90;;;;;;5045628;28;20061;-67
2021/08/22 10:20:48;;;;;;;17.50;10.13;;;22.40;81.90;;;;;;5030926;28;20047;-67
2021/08/22 10:23:47;;;;;;;14.20;9.35;;;22.40;81.60;;;;;;5037901;28;20029;-68
2021/08/22 10:26:50;;;;;;;15.52;8.88;;;22.40;81.10;;;;;;5041697;28;20128;-68
2021/08/22 10:29:27;;;;;;;14.45;9.48;;;22.40;80.90;;;;;;5040014;28;20108;-67
2021/08/22 10:31:52;;;;;;;15.63;8.50;;;22.50;80.70;;;;;;5032752;28;20075;-68
2021/08/22 10:34:22;;;;;;;12.45;8.07;;;22.60;80.80;;;;;;5059601;28;21067;-68
2021/08/22 10:36:48;;;;;;;12.75;8.52;;;22.50;81.00;;;;;;5046878;28;20055;-67
2021/08/22 10:39:23;;;;;;;13.38;8.43;;;22.60;80.90;;;;;;5039089;28;20039;-71
2021/08/22 10:41:53;;;;;;;15.40;8.48;;;22.70;80.80;;;;;;5040948;28;20030;-67
2021/08/22 10:44:34;;;;;;;12.98;8.77;;;22.60;80.30;;;;;;5046550;28;20542;-68
2021/08/22 10:47:04;;;;;;;15.07;8.65;;;22.50;80.90;;;;;;5046727;28;20029;-67
2021/08/22 10:49:54;;;;;;;15.82;9.98;;;22.50;81.00;;;;;;5047726;28;20036;-67
2021/08/22 10:52:30;;;;;;;16.15;8.82;;;22.50;80.30;;;;;;5040518;28;20040;-67
2021/08/22 10:55:14;;;;;;;14.50;9.35;;;22.60;79.90;;;;;;5051660;28;20029;-68
2021/08/22 10:57:48;;;;;;;15.45;10.57;;;22.70;79.80;;;;;;5050372;28;20032;-65
2021/08/22 11:00:26;;;;;;;17.77;9.90;;;22.80;80.00;;;;;;5040639;28;20499;-66
2021/08/22 11:02:59;;;;;;;17.25;10.35;;;22.80;79.80;;;;;;5028427;28;20079;-67
2021/08/22 11:05:29;;;;;;;16.85;12.25;;;22.80;79.30;;;;;;5029643;28;20029;-68
2021/08/22 11:07:55;;;;;;;17.60;12.80;;;22.80;78.00;;;;;;5046151;28;20040;-67
2021/08/22 11:10:28;;;;;;;17.38;11.93;;;22.80;77.90;;;;;;5045875;28;20037;-67
2021/08/22 11:12:54;;;;;;;20.33;10.35;;;22.80;77.80;;;;;;5047631;28;20094;-67
2021/08/22 11:15:22;;;;;;;15.65;10.48;;;22.80;78.70;;;;;;5045674;28;20037;-67
2021/08/22 11:17:53;;;;;;;14.02;9.68;;;22.80;79.00;;;;;;5034295;28;20025;-66
2021/08/22 11:20:20;;;;;;;15.50;9.73;;;22.70;79.20;;;;;;5043439;28;20033;-66
2021/08/22 11:22:50;;;;;;;13.05;8.45;;;22.70;79.50;;;;;;5045873;28;20025;-68
2021/08/22 11:25:15;;;;;;;14.75;10.30;;;22.70;79.70;;;;;;5034451;28;20031;-66
2021/08/22 11:27:41;;;;;;;14.82;11.15;;;22.80;78.80;;;;;;5045204;28;20111;-66
2021/08/22 11:30:09;;;;;;;16.55;11.68;;;22.80;78.10;;;;;;5035903;28;20056;-67
2021/08/22 11:32:37;;;;;;;13.93;9.98;;;22.80;78.00;;;;;;5026888;28;20398;-67
2021/08/22 11:35:12;;;;;;;13.93;10.38;;;22.90;78.60;;;;;;5030195;28;20510;-66
2021/08/22 11:37:37;;;;;;;12.13;9.40;;;23.00;77.50;;;;;;5045617;28;20029;-66
2021/08/22 11:40:09;;;;;;;12.57;9.57;;;23.00;77.60;;;;;;5045019;28;20051;-67
2021/08/22 11:42:36;;;;;;;12.90;9.75;;;23.00;76.40;;;;;;5046768;28;20029;-67
2021/08/22 11:45:09;;;;;;;14.57;10.15;;;23.00;76.10;;;;;;5033400;28;20026;-67
2021/08/22 11:47:37;;;;;;;13.55;9.32;;;22.90;75.90;;;;;;5034336;28;20025;-66
2021/08/22 11:50:06;;;;;;;12.60;8.90;;;23.00;76.30;;;;;;5037520;28;20028;-66
2021/08/22 11:52:34;;;;;;;13.88;9.88;;;23.00;76.90;;;;;;5037018;28;20021;-66
2021/08/22 11:55:00;;;;;;;12.75;8.85;;;23.00;75.60;;;;;;5044694;28;20110;-67
2021/08/22 11:57:28;;;;;;;12.13;8.68;;;23.00;76.30;;;;;;5039675;28;20060;-68
2021/08/22 12:00:20;;;;;;;11.73;8.48;;;23.00;75.50;;;;;;5038455;28;20086;-68
2021/08/22 12:03:00;;;;;;;12.82;8.35;;;23.00;76.00;;;;;;5029218;28;20049;-69
2021/08/22 12:05:27;;;;;;;13.57;8.65;;;23.00;75.60;;;;;;5029989;28;20525;-68
2021/08/22 12:08:10;;;;;;;12.88;8.05;;;23.00;75.40;;;;;;5027620;28;20095;-69
2021/08/22 12:10:38;;;;;;;10.35;6.97;;;23.00;74.90;;;;;;5028631;28;20120;-68
2021/08/22 12:13:12;;;;;;;12.00;7.63;;;23.00;76.00;;;;;;5032402;28;20064;-66
2021/08/22 12:15:39;;;;;;;13.15;7.22;;;23.00;77.60;;;;;;5031780;28;20108;-67
2021/08/22 12:18:20;;;;;;;9.63;6.95;;;23.10;76.20;;;;;;5032147;28;20506;-67
2021/08/22 12:20:52;;;;;;;10.07;6.85;;;23.10;76.70;;;;;;5030425;28;20032;-67
2021/08/22 12:23:26;;;;;;;9.38;6.50;;;23.10;76.20;;;;;;5028253;28;20032;-67
2021/08/22 12:25:52;;;;;;;10.00;6.55;;;23.10;77.00;;;;;;5030531;28;20044;-67
2021/08/22 12:28:28;;;;;;;8.63;6.10;;;23.10;76.90;;;;;;5031182;28;20558;-66
2021/08/22 12:31:06;;;;;;;9.27;6.25;;;23.10;76.80;;;;;;5031756;28;20029;-67
2021/08/22 12:33:34;;;;;;;10.00;6.80;;;23.20;75.30;;;;;;5037124;28;20029;-69
2021/08/22 12:36:04;;;;;;;9.98;6.90;;;23.10;74.70;;;;;;5037621;28;20021;-68
2021/08/22 12:38:52;;;;;;;9.63;6.35;;;23.10;75.20;;;;;;5027894;28;20515;-68
2021/08/22 12:41:51;;;;;;;8.32;5.80;;;23.10;76.90;;;;;;5032521;28;20029;-66
2021/08/22 12:44:20;;;;;;;9.82;6.05;;;23.10;77.00;;;;;;5021433;28;20048;-66
2021/08/22 12:46:52;;;;;;;8.68;6.10;;;23.10;76.80;;;;;;5029352;28;20028;-66
2021/08/22 12:49:18;;;;;;;9.38;6.55;;;23.10;74.40;;;;;;5036762;28;20029;-68
2021/08/22 12:51:55;;;;;;;8.95;6.63;;;23.10;74.40;;;;;;5031795;28;20441;-66
2021/08/22 12:54:23;;;;;;;10.50;5.88;;;23.10;74.00;;;;;;5024054;28;20029;-68
2021/08/22 12:56:49;;;;;;;8.45;5.95;;;23.10;74.30;;;;;;5025397;28;20087;-68